Time;durP1;ratioP1;P1;durP2;ratioP2;P2;SDS_P1;SDS_P2;PMS_P1;PMS_P2;Temp;Humidity;BMP_temperature;BMP_pressure;BME280_temperature;BME280_humidity;BME280_pressure;Samples;Min_cycle;Max_cycle;Signal;HPM_P1;HPM_P2
2022/05/27 00:01:33;;;;;;;3.10;1.30;;;;;;;21.35;48.69;101959.31;5052430;28;20041;-58
2022/05/27 00:04:01;;;;;;;2.60;1.33;;;;;;;21.36;49.05;101963.63;5052517;28;20043;-58
2022/05/27 00:06:27;;;;;;;3.45;1.40;;;;;;;21.35;49.01;101960.13;5052270;28;20037;-58
2022/05/27 00:08:53;;;;;;;3.55;1.45;;;;;;;21.36;48.66;101955.66;5052614;28;20033;-59
2022/05/27 00:11:19;;;;;;;2.40;1.40;;;;;;;21.32;48.96;101949.78;5052979;28;20117;-58
2022/05/27 00:13:44;;;;;;;3.28;1.40;;;;;;;21.35;48.74;101944.22;5051951;28;20021;-58
2022/05/27 00:16:11;;;;;;;2.13;1.20;;;;;;;21.34;48.83;101953.13;5052278;28;20048;-59
2022/05/27 00:18:36;;;;;;;4.05;1.42;;;;;;;21.34;48.60;101950.47;5052736;28;20112;-59
2022/05/27 00:21:03;;;;;;;3.63;1.40;;;;;;;21.34;48.50;101953.13;5051731;28;20117;-57
2022/05/27 00:23:32;;;;;;;2.78;1.40;;;;;;;21.34;48.78;101950.47;5052796;28;20032;-58
2022/05/27 00:25:57;;;;;;;3.13;1.20;;;;;;;21.34;48.93;101941.69;5049552;28;20463;-58
2022/05/27 00:28:23;;;;;;;4.70;1.50;;;;;;;21.33;48.42;101946.16;5051971;28;20049;-59
2022/05/27 00:30:48;;;;;;;3.05;1.38;;;;;;;21.32;48.89;101947.13;5052229;28;20274;-59
2022/05/27 00:33:13;;;;;;;3.20;1.35;;;;;;;21.31;48.82;101948.06;5052503;28;20024;-58
2022/05/27 00:35:39;;;;;;;2.83;1.35;;;;;;;21.32;48.86;101946.28;5051862;28;20112;-57
2022/05/27 00:38:14;;;;;;;2.72;1.20;;;;;;;21.31;48.88;101942.78;5052361;28;20029;-58
2022/05/27 00:40:44;;;;;;;3.28;1.50;;;;;;;21.30;48.50;101949.06;5051904;28;20491;-58
2022/05/27 00:43:10;;;;;;;3.55;1.30;;;;;;;21.32;48.88;101946.28;5052163;28;20067;-58
2022/05/27 00:45:38;;;;;;;2.95;1.30;;;;;;;21.30;48.79;101930.50;5052316;28;20036;-58
2022/05/27 00:48:07;;;;;;;3.58;1.30;;;;;;;21.30;48.62;101937.59;5051568;28;20413;-58
2022/05/27 00:50:38;;;;;;;3.13;1.20;;;;;;;21.29;48.44;101936.75;5052312;28;20053;-59
2022/05/27 00:53:06;;;;;;;2.60;1.17;;;;;;;21.30;48.85;101937.59;5052197;28;20032;-58
2022/05/27 00:55:36;;;;;;;2.42;1.23;;;;;;;21.29;48.77;101933.25;5051592;28;20017;-58
2022/05/27 00:58:09;;;;;;;2.85;1.40;;;;;;;21.28;49.02;101929.75;5052043;28;20025;-57
2022/05/27 01:00:36;;;;;;;4.60;1.73;;;;;;;21.27;49.07;101925.44;5052577;28;20025;-59
2022/05/27 01:03:03;;;;;;;3.05;1.20;;;;;;;21.27;48.79;101935.16;5051437;28;20021;-58
2022/05/27 01:05:28;;;;;;;2.17;1.10;;;;;;;21.27;48.98;101930.72;5052379;28;20079;-58
2022/05/27 01:07:58;;;;;;;3.30;1.30;;;;;;;21.27;49.01;101922.78;5051977;28;20033;-59
2022/05/27 01:10:26;;;;;;;4.05;1.40;;;;;;;21.27;48.78;101924.56;5051417;28;20029;-58
2022/05/27 01:13:12;;;;;;;2.35;1.30;;;;;;;21.27;48.98;101909.53;5051865;28;20388;-58
2022/05/27 01:15:59;;;;;;;3.53;1.52;;;;;;;21.26;48.96;101926.38;5054664;28;20048;-58
2022/05/27 01:21:53;;;;;;;3.10;1.27;;;;;;;21.26;48.91;101926.38;5055901;28;20439;-58
2022/05/27 01:24:52;;;;;;;3.25;1.30;;;;;;;21.27;48.93;101932.53;5055236;28;20484;-59
2022/05/27 01:27:54;;;;;;;3.30;1.40;;;;;;;21.26;49.33;101922.91;5055726;28;20044;-57
2022/05/27 01:30:22;;;;;;;4.05;1.40;;;;;;;21.25;49.07;101929.16;5055230;28;20036;-58
2022/05/27 01:32:50;;;;;;;3.08;1.40;;;;;;;21.25;49.00;101927.34;5055782;28;20032;-58
2022/05/27 01:35:45;;;;;;;3.88;1.40;;;;;;;21.24;49.14;101912.41;5055581;28;20025;-58
2022/05/27 01:38:14;;;;;;;3.65;1.67;;;;;;;21.23;49.13;101916.00;5051585;28;20048;-59
2022/05/27 01:41:25;;;;;;;3.65;1.55;;;;;;;21.24;49.11;101920.38;5055619;28;20029;-58
2022/05/27 01:43:59;;;;;;;3.42;1.52;;;;;;;21.24;49.32;101920.38;5037439;28;20044;-58
2022/05/27 01:46:37;;;;;;;4.75;1.40;;;;;;;21.25;49.37;101924.69;5055781;28;20032;-57
2022/05/27 01:49:14;;;;;;;3.92;1.30;;;;;;;21.23;49.16;101913.38;5055229;28;20044;-57
2022/05/27 01:51:47;;;;;;;3.17;1.38;;;;;;;21.23;49.22;101921.31;5054645;28;20025;-58
2022/05/27 01:54:21;;;;;;;2.88;1.40;;;;;;;21.23;49.27;101909.88;5054966;28;20029;-58
2022/05/27 01:56:52;;;;;;;2.97;1.23;;;;;;;21.22;49.50;101918.78;5055370;28;20025;-57
2022/05/27 01:59:35;;;;;;;2.67;1.27;;;;;;;21.22;49.13;101918.78;5054679;28;20033;-58
2022/05/27 02:02:07;;;;;;;3.08;1.38;;;;;;;21.21;49.29;101923.25;5055015;28;20066;-58
2022/05/27 02:05:06;;;;;;;3.92;1.50;;;;;;;21.22;49.58;101905.53;5055149;28;20021;-59
2022/05/27 02:07:43;;;;;;;4.32;1.40;;;;;;;21.21;49.62;101920.59;5050752;28;20435;-57
2022/05/27 02:10:15;;;;;;;4.78;1.52;;;;;;;21.22;49.49;101918.78;5054771;28;20079;-57
2022/05/27 02:12:52;;;;;;;3.17;1.55;;;;;;;21.20;49.67;101921.56;5054369;28;20036;-59
2022/05/27 02:15:26;;;;;;;3.80;1.50;;;;;;;21.19;49.49;101920.72;5054734;28;20045;-57
2022/05/27 02:17:59;;;;;;;3.00;1.30;;;;;;;21.19;49.83;101918.06;5054875;28;20052;-56
2022/05/27 02:20:33;;;;;;;2.72;1.17;;;;;;;21.19;49.42;101912.75;5054182;28;20269;-58
2022/05/27 02:23:01;;;;;;;;;;;;;;;21.19;49.73;101914.59;5054901;28;20025;-57
2022/05/27 02:25:38;;;;;;;3.03;1.50;;;;;;;21.20;49.59;101918.91;5054269;28;19922;-58
2022/05/27 02:28:17;;;;;;;3.95;1.48;;;;;;;21.19;49.85;101917.22;5053606;28;20369;-57
2022/05/27 02:30:45;;;;;;;3.65;1.42;;;;;;;21.19;49.97;101919.88;5054808;28;20029;-57
2022/05/27 02:36:15;;;;;;;2.95;1.35;;;;;;;21.17;49.78;101917.34;5054338;28;20039;-57
2022/05/27 02:38:41;;;;;;;3.95;1.40;;;;;;;21.16;49.86;101915.66;5054693;28;20103;-58
2022/05/27 02:41:35;;;;;;;3.47;1.33;;;;;;;21.17;49.94;101911.19;5053661;28;20104;-57
2022/05/27 02:44:22;;;;;;;3.40;1.40;;;;;;;21.17;50.01;101900.59;5054159;28;20060;-57
2022/05/27 02:46:54;;;;;;;2.65;1.30;;;;;;;21.16;49.88;101894.44;5054581;28;20037;-58
2022/05/27 02:49:25;;;;;;;3.35;1.30;;;;;;;21.16;49.96;101906.88;5054274;28;20052;-58
2022/05/27 02:52:05;;;;;;;3.83;1.40;;;;;;;21.17;49.97;101908.53;5054495;28;20021;-58
2022/05/27 02:54:30;;;;;;;3.08;1.15;;;;;;;21.16;49.97;101918.31;5054912;28;20017;-58
2022/05/27 02:57:17;;;;;;;3.83;1.40;;;;;;;21.15;50.09;101908.66;5055459;28;20080;-58
2022/05/27 02:59:43;;;;;;;4.03;1.40;;;;;;;21.14;50.00;101906.97;5056333;28;20029;-58
2022/05/27 03:02:15;;;;;;;2.65;1.30;;;;;;;21.14;50.27;101909.63;5054966;28;20031;-57
2022/05/27 03:04:45;;;;;;;3.67;1.42;;;;;;;21.15;49.95;101894.56;5055530;28;20093;-58
2022/05/27 03:07:33;;;;;;;4.03;1.52;;;;;;;21.13;50.08;101899.97;5054364;28;20468;-58
2022/05/27 03:10:29;;;;;;;2.80;1.27;;;;;;;21.14;50.14;101892.88;5053686;28;20028;-58
2022/05/27 03:13:25;;;;;;;3.47;1.45;;;;;;;21.14;50.20;101900.81;5054218;28;20040;-58
2022/05/27 03:16:20;;;;;;;3.63;1.65;;;;;;;21.13;50.07;101888.56;5052585;28;20126;-57
2022/05/27 03:19:06;;;;;;;;;;;;;;;21.13;50.16;101899.97;5054258;28;20036;-58
2022/05/27 03:21:58;;;;;;;2.17;1.10;;;;;;;21.13;50.21;101896.50;5053594;28;19912;-58
2022/05/27 03:24:54;;;;;;;3.00;1.45;;;;;;;21.13;50.19;101899.16;5031595;28;20098;-58
2022/05/27 03:27:42;;;;;;;4.32;1.73;;;;;;;21.12;50.30;101892.16;5053635;28;20086;-58
2022/05/27 03:30:15;;;;;;;2.92;1.30;;;;;;;21.11;50.25;101891.31;5052537;28;20074;-58
2022/05/27 03:33:00;;;;;;;3.80;1.63;;;;;;;21.10;49.98;101894.09;5053770;28;20120;-59
2022/05/27 03:35:50;;;;;;;3.70;1.70;;;;;;;21.10;50.45;101881.66;5053572;28;20028;-58
2022/05/27 03:38:39;;;;;;;3.15;1.50;;;;;;;21.09;50.18;101895.88;5052145;28;20388;-58
2022/05/27 03:41:11;;;;;;;3.75;1.40;;;;;;;21.10;50.30;101899.38;5053117;28;20037;-58
2022/05/27 03:43:38;;;;;;;3.80;1.77;;;;;;;21.09;50.22;101884.44;5052646;28;20552;-58
2022/05/27 03:46:06;;;;;;;3.15;1.48;;;;;;;21.09;50.30;101895.88;5052989;28;20083;-58
2022/05/27 03:48:34;;;;;;;3.53;1.60;;;;;;;21.10;50.58;101897.56;5053297;28;20082;-58
2022/05/27 03:51:06;;;;;;;3.33;1.42;;;;;;;21.09;50.44;101897.69;5052086;28;20017;-59
2022/05/27 03:56:15;;;;;;;3.47;1.58;;;;;;;21.09;50.26;101917.06;5053019;28;20095;-58
2022/05/27 03:58:41;;;;;;;2.88;1.30;;;;;;;21.08;50.47;101910.09;5052296;28;20028;-58
2022/05/27 04:01:06;;;;;;;2.92;1.40;;;;;;;21.08;50.42;101904.81;5052767;28;20021;-58
2022/05/27 04:03:31;;;;;;;3.13;1.38;;;;;;;21.07;50.52;101916.34;5052807;28;20025;-57
2022/05/27 04:05:57;;;;;;;3.65;1.60;;;;;;;21.08;50.42;101910.09;5052076;28;20378;-58
2022/05/27 04:08:22;;;;;;;3.17;1.40;;;;;;;21.07;50.40;101904.91;5053011;28;20460;-58
2022/05/27 04:10:47;;;;;;;3.75;1.63;;;;;;;21.07;50.37;101908.41;5052975;28;20033;-58
2022/05/27 04:13:13;;;;;;;3.63;1.60;;;;;;;21.07;50.66;101908.41;5051802;28;20025;-58
2022/05/27 04:15:38;;;;;;;4.13;1.40;;;;;;;21.07;50.37;101913.72;5052669;28;20826;-58
2022/05/27 04:18:03;;;;;;;2.43;1.27;;;;;;;21.07;50.46;101913.72;5052358;28;20297;-58
2022/05/27 04:20:29;;;;;;;2.67;1.27;;;;;;;21.07;50.33;101916.34;5052147;28;20281;-57
2022/05/27 04:22:54;;;;;;;4.72;1.52;;;;;;;21.06;50.30;101909.38;5052644;28;20025;-58
2022/05/27 04:25:20;;;;;;;3.08;1.40;;;;;;;21.06;50.41;101914.69;5052797;28;20021;-58
2022/05/27 04:27:46;;;;;;;2.28;1.10;;;;;;;21.06;50.58;101919.13;5052041;28;20029;-58
2022/05/27 04:30:12;;;;;;;2.70;1.20;;;;;;;21.06;50.74;101921.78;5051795;28;20037;-58
2022/05/27 04:32:38;;;;;;;3.50;1.40;;;;;;;21.05;50.79;101915.63;5051697;28;20055;-57
2022/05/27 04:35:04;;;;;;;2.75;1.50;;;;;;;21.06;50.82;101924.44;5052372;28;20536;-58
2022/05/27 04:37:29;;;;;;;3.40;1.33;;;;;;;21.06;50.54;101919.13;5052478;28;20025;-58
2022/05/27 04:39:54;;;;;;;2.90;1.30;;;;;;;21.05;50.71;101920.09;5051613;28;20448;-57
2022/05/27 04:42:19;;;;;;;3.63;1.40;;;;;;;21.06;50.67;101921.78;5052615;28;20270;-58
2022/05/27 04:44:45;;;;;;;2.95;1.60;;;;;;;21.05;50.76;101914.81;5052543;28;20104;-57
2022/05/27 04:47:11;;;;;;;3.30;1.33;;;;;;;21.05;50.83;101920.09;5051463;28;20401;-57
2022/05/27 04:49:56;;;;;;;3.15;1.33;;;;;;;21.05;50.77;101913.00;5056211;28;20029;-58
2022/05/27 04:52:24;;;;;;;4.47;1.40;;;;;;;21.05;50.83;101914.81;5056629;28;20025;-58
2022/05/27 04:54:51;;;;;;;2.67;1.20;;;;;;;21.04;50.64;101918.41;5055344;28;20028;-58
2022/05/27 04:57:21;;;;;;;2.58;1.33;;;;;;;21.05;50.71;101925.41;5056130;28;20029;-58
2022/05/27 04:59:49;;;;;;;2.95;1.30;;;;;;;21.05;51.02;101920.09;5056141;28;20029;-58
2022/05/27 05:02:15;;;;;;;2.47;1.23;;;;;;;21.05;51.00;101920.94;5055650;28;20057;-58
2022/05/27 05:04:41;;;;;;;3.47;1.35;;;;;;;21.05;50.87;101922.75;5056388;28;20025;-58
2022/05/27 05:07:08;;;;;;;3.15;1.30;;;;;;;21.04;50.63;101926.34;5055956;28;20036;-57
2022/05/27 05:09:37;;;;;;;4.30;1.50;;;;;;;21.02;50.84;101927.31;5055309;28;20060;-58
2022/05/27 05:12:03;;;;;;;2.83;1.30;;;;;;;21.04;50.73;101929.00;5055687;28;20404;-59
2022/05/27 05:14:29;;;;;;;2.42;1.23;;;;;;;21.02;51.19;101935.25;5055621;28;20045;-59
2022/05/27 05:16:54;;;;;;;3.22;1.45;;;;;;;21.03;50.94;101925.53;5055021;28;20036;-58
2022/05/27 05:19:19;;;;;;;2.27;1.40;;;;;;;21.03;50.78;101930.81;5055865;28;20032;-58
2022/05/27 05:21:44;;;;;;;4.33;1.47;;;;;;;21.03;50.63;101936.13;5055516;28;20274;-56
2022/05/27 05:24:10;;;;;;;2.78;1.23;;;;;;;21.03;51.23;101933.47;5055347;28;20765;-58
2022/05/27 05:26:38;;;;;;;3.27;1.40;;;;;;;21.03;50.84;101946.72;5055747;28;20151;-58
2022/05/27 05:29:05;;;;;;;2.80;1.40;;;;;;;21.03;51.23;101941.44;5054567;28;20036;-58
2022/05/27 05:31:31;;;;;;;3.03;1.30;;;;;;;21.04;51.43;101939.59;5055969;28;20118;-57
2022/05/27 05:33:59;;;;;;;3.88;1.23;;;;;;;21.03;51.28;101954.69;5055233;28;20071;-57
2022/05/27 05:36:31;;;;;;;3.05;1.48;;;;;;;21.04;50.88;101952.84;5054867;28;20495;-58
2022/05/27 05:38:57;;;;;;;4.50;1.60;;;;;;;21.04;51.23;101960.81;5055452;28;20032;-59
2022/05/27 05:41:36;;;;;;;3.30;1.40;;;;;;;21.04;51.42;101960.81;5055275;28;20021;-59
2022/05/27 05:44:02;;;;;;;4.10;1.38;;;;;;;21.04;51.60;101958.16;5054551;28;20035;-58
2022/05/27 05:46:28;;;;;;;2.83;1.20;;;;;;;21.04;51.54;101955.50;5055243;28;20025;-59
2022/05/27 05:48:55;;;;;;;3.53;1.40;;;;;;;21.03;51.27;101962.63;5054931;28;20520;-58
2022/05/27 05:51:21;;;;;;;2.22;1.20;;;;;;;21.04;51.22;101971.41;5054574;28;20104;-58
2022/05/27 05:53:46;;;;;;;3.25;1.40;;;;;;;21.04;51.23;101968.75;5055287;28;20044;-59
2022/05/27 05:56:12;;;;;;;3.17;1.50;;;;;;;21.05;51.53;101981.06;5054784;28;20564;-56
2022/05/27 05:58:37;;;;;;;3.15;1.35;;;;;;;21.05;51.37;101973.13;5054837;28;20078;-58
2022/05/27 06:01:03;;;;;;;5.00;1.48;;;;;;;21.03;51.65;101973.22;5054054;28;20024;-57
2022/05/27 06:03:28;;;;;;;3.83;1.60;;;;;;;21.02;51.75;101968.88;5055375;28;20108;-57
2022/05/27 06:05:54;;;;;;;4.10;1.53;;;;;;;21.00;51.57;101963.69;5054048;28;20051;-58
2022/05/27 06:08:19;;;;;;;3.42;1.40;;;;;;;21.01;51.30;101962.75;5054965;28;20269;-59
2022/05/27 06:10:48;;;;;;;4.10;1.40;;;;;;;21.00;51.44;101969.00;5055214;28;20035;-58
2022/05/27 06:13:13;;;;;;;2.63;1.10;;;;;;;21.00;51.51;101961.03;5054128;28;20021;-59
2022/05/27 06:15:39;;;;;;;3.40;1.20;;;;;;;21.01;51.59;101967.19;5054520;28;20037;-59
2022/05/27 06:18:06;;;;;;;2.97;1.13;;;;;;;21.01;51.76;101968.03;5053535;28;20086;-58
2022/05/27 06:20:32;;;;;;;3.38;1.33;;;;;;;21.02;51.85;101967.06;5054745;28;20036;-57
2022/05/27 06:22:57;;;;;;;3.88;1.50;;;;;;;21.02;51.99;101972.34;5054474;28;20013;-58
2022/05/27 06:25:23;;;;;;;3.40;1.13;;;;;;;21.04;51.95;101974.91;5053766;28;20032;-57
2022/05/27 06:27:49;;;;;;;4.05;1.20;;;;;;;21.04;51.96;101977.53;5054497;28;20277;-59
2022/05/27 06:35:42;;;;;;;4.65;1.40;;;;;;;21.06;51.68;101995.97;5054426;28;20094;-60
2022/05/27 06:38:08;;;;;;;4.22;1.60;;;;;;;21.05;51.63;101987.19;5054158;28;20486;-59
2022/05/27 06:40:36;;;;;;;4.15;1.30;;;;;;;21.08;51.69;101992.28;5053649;28;20066;-57
2022/05/27 06:43:01;;;;;;;3.75;1.40;;;;;;;21.08;52.13;101994.91;5054088;28;20059;-60
2022/05/27 06:45:27;;;;;;;5.07;1.67;;;;;;;21.10;51.87;101994.81;5054413;28;20433;-60
2022/05/27 06:47:52;;;;;;;4.80;1.90;;;;;;;21.10;52.46;101992.97;5053913;28;20018;-58
2022/05/27 06:50:18;;;;;;;6.43;1.60;;;;;;;21.13;52.67;101984.81;5056663;28;20356;-59
2022/05/27 06:52:43;;;;;;;4.35;1.50;;;;;;;21.18;52.56;101987.94;5056328;28;20123;-60
2022/05/27 06:55:11;;;;;;;4.13;1.40;;;;;;;21.23;52.60;101990.25;5054899;28;20465;-58
2022/05/27 06:57:36;;;;;;;4.45;1.33;;;;;;;21.29;52.06;101999.53;5056771;28;20690;-59
2022/05/27 07:00:06;;;;;;;5.05;1.40;;;;;;;21.36;52.34;101996.31;5053683;28;20052;-60
2022/05/27 07:02:40;;;;;;;3.97;1.40;;;;;;;21.43;52.11;101994.03;5056397;28;20064;-60
2022/05/27 07:05:09;;;;;;;7.30;1.50;;;;;;;21.50;51.93;101999.72;5056301;28;20076;-59
2022/05/27 07:07:35;;;;;;;4.70;1.40;;;;;;;21.52;51.77;102001.31;5053527;28;20405;-60
2022/05/27 07:10:03;;;;;;;4.70;1.35;;;;;;;21.54;51.50;102004.66;5053622;28;20017;-59
2022/05/27 07:12:29;;;;;;;6.00;1.38;;;;;;;21.52;51.49;102003.97;5053902;28;20032;-59
2022/05/27 07:14:54;;;;;;;4.47;1.67;;;;;;;21.51;51.71;102002.25;5052657;28;20053;-59
2022/05/27 07:17:19;;;;;;;3.03;1.20;;;;;;;21.50;51.58;101997.06;5053981;28;20037;-60
2022/05/27 07:19:45;;;;;;;4.03;1.33;;;;;;;21.48;51.42;101998.97;5053822;28;20094;-60
2022/05/27 07:22:14;;;;;;;3.47;1.15;;;;;;;21.47;51.35;101998.09;5052804;28;20021;-60
2022/05/27 07:24:43;;;;;;;4.35;1.00;;;;;;;21.47;51.63;102002.56;5053396;28;20536;-57
2022/05/27 07:27:08;;;;;;;6.22;1.48;;;;;;;21.46;51.51;102003.53;5053423;28;20365;-58
2022/05/27 07:29:34;;;;;;;4.05;1.40;;;;;;;21.45;51.61;102005.34;5052734;28;20021;-59
2022/05/27 07:32:00;;;;;;;2.40;1.13;;;;;;;21.47;51.92;102010.53;5053186;28;20021;-58
2022/05/27 07:34:31;;;;;;;3.22;1.10;;;;;;;21.47;51.80;102010.53;5053515;28;20055;-59
2022/05/27 07:36:57;;;;;;;3.13;1.08;;;;;;;21.47;51.94;101999.94;5052192;28;20032;-60
2022/05/27 07:39:22;;;;;;;5.85;1.73;;;;;;;21.46;51.67;101999.09;5053353;28;20029;-63
2022/05/27 07:41:48;;;;;;;4.23;1.33;;;;;;;21.47;52.16;102006.06;5053185;28;20025;-60
2022/05/27 07:44:13;;;;;;;4.28;1.30;;;;;;;21.47;52.24;102007.88;5052177;28;20028;-60
2022/05/27 07:46:39;;;;;;;5.82;1.30;;;;;;;21.46;52.13;101999.09;5053329;28;20029;-59
2022/05/27 07:49:07;;;;;;;5.50;1.60;;;;;;;21.49;52.32;102011.28;5053157;28;20025;-61
2022/05/27 07:51:32;;;;;;;6.85;1.48;;;;;;;21.49;52.28;102006.84;5052748;28;20029;-60
2022/05/27 07:53:57;;;;;;;3.85;1.42;;;;;;;21.53;52.13;102005.63;5053077;28;20546;-58
2022/05/27 07:56:22;;;;;;;6.17;1.70;;;;;;;21.58;52.36;102009.75;5053110;28;20483;-59
2022/05/27 07:58:48;;;;;;;6.87;1.63;;;;;;;21.66;52.10;102013.47;5052378;28;20312;-60
2022/05/27 08:01:14;;;;;;;7.30;1.52;;;;;;;21.73;52.13;102005.91;5054304;28;20273;-59
2022/05/27 08:03:42;;;;;;;5.47;1.90;;;;;;;21.81;51.99;102013.22;5052622;28;20017;-60
2022/05/27 08:06:08;;;;;;;5.38;1.95;;;;;;;21.86;51.76;101997.81;5052518;28;20435;-58
2022/05/27 08:08:34;;;;;;;4.53;1.40;;;;;;;21.89;51.66;102009.03;5053523;28;20020;-61
2022/05/27 08:10:59;;;;;;;4.22;1.50;;;;;;;21.93;51.45;102009.63;5052380;28;20017;-60
2022/05/27 08:13:26;;;;;;;7.28;1.80;;;;;;;21.96;51.10;102006.72;5053009;28;20021;-60
2022/05/27 08:15:52;;;;;;;7.70;1.50;;;;;;;22.00;51.31;102005.53;5052301;28;20393;-62
2022/05/27 08:18:19;;;;;;;5.15;1.67;;;;;;;22.04;50.82;102014.06;5052644;28;20021;-59
2022/05/27 08:20:44;;;;;;;3.85;1.40;;;;;;;22.06;51.09;102023.63;5052945;28;20048;-61
2022/05/27 08:23:09;;;;;;;3.70;1.30;;;;;;;22.09;50.74;102022.50;5052287;28;20477;-61
2022/05/27 08:25:36;;;;;;;4.27;1.57;;;;;;;22.09;50.78;102033.97;5051465;28;20199;-61
2022/05/27 08:28:02;;;;;;;4.13;1.83;;;;;;;22.09;50.80;102038.44;5052266;28;20266;-59
2022/05/27 08:30:31;;;;;;;5.22;1.80;;;;;;;22.09;50.68;102039.25;5053178;28;20036;-58
2022/05/27 08:32:58;;;;;;;6.00;1.70;;;;;;;22.10;50.68;102040.97;5051795;28;20025;-59
2022/05/27 08:38:30;;;;;;;4.53;1.58;;;;;;;22.13;50.51;102033.72;5052607;28;20048;-57
2022/05/27 08:41:07;;;;;;;4.65;1.40;;;;;;;22.12;50.55;102032.03;5051592;28;20090;-58
2022/05/27 08:43:52;;;;;;;6.95;1.80;;;;;;;22.13;50.59;102023.97;5052620;28;20024;-59
2022/05/27 08:46:39;;;;;;;6.63;1.73;;;;;;;22.14;50.40;102024.78;5052871;28;20037;-59
2022/05/27 08:49:09;;;;;;;3.58;1.50;;;;;;;22.17;50.64;102033.34;5053178;28;20029;-59
2022/05/27 08:51:50;;;;;;;5.88;1.40;;;;;;;22.17;50.67;102037.81;5052697;28;20423;-58
2022/05/27 08:54:22;;;;;;;8.68;2.63;;;;;;;22.17;50.62;102035.16;5051877;28;20473;-60
2022/05/27 08:59:44;;;;;;;4.25;1.50;;;;;;;22.15;50.32;102043.25;5052429;28;20393;-59
2022/05/27 09:02:25;;;;;;;4.30;1.60;;;;;;;22.12;50.32;102040.00;5051523;28;20032;-57
2022/05/27 09:05:03;;;;;;;5.25;1.55;;;;;;;22.08;50.60;102039.41;5052083;28;20031;-59
2022/05/27 09:07:41;;;;;;;4.85;1.52;;;;;;;22.05;50.47;102051.13;5051493;28;20507;-59
2022/05/27 09:10:17;;;;;;;3.90;1.50;;;;;;;22.02;50.94;102054.00;5052059;28;20025;-58
2022/05/27 09:13:10;;;;;;;3.95;1.40;;;;;;;21.99;50.80;102043.63;5052376;28;20052;-58
2022/05/27 09:16:01;;;;;;;6.70;1.60;;;;;;;21.96;50.73;102049.19;5051079;28;20056;-57
2022/05/27 09:18:45;;;;;;;3.55;1.58;;;;;;;21.95;50.91;102049.31;5052344;28;20033;-58
2022/05/27 09:21:25;;;;;;;3.90;1.50;;;;;;;21.92;51.03;102050.38;5051097;28;20152;-59
2022/05/27 09:24:10;;;;;;;4.35;1.15;;;;;;;21.90;51.17;102060.28;5051791;28;20032;-58
2022/05/27 09:26:58;;;;;;;6.32;1.80;;;;;;;21.89;51.32;102050.66;5052104;28;20417;-59
2022/05/27 09:29:44;;;;;;;6.30;1.55;;;;;;;21.91;51.23;102057.50;5052995;28;20035;-58
2022/05/27 09:32:25;;;;;;;9.80;2.55;;;;;;;21.92;51.01;102076.91;5052971;28;20120;-58
2022/05/27 09:34:56;;;;;;;4.80;1.70;;;;;;;21.96;51.11;102069.59;5052797;28;20486;-60
2022/05/27 09:37:37;;;;;;;6.75;1.65;;;;;;;22.01;50.66;102070.06;5056776;28;20033;-60
2022/05/27 09:40:25;;;;;;;5.50;1.70;;;;;;;22.08;50.56;102076.59;5055880;28;20035;-57
2022/05/27 09:43:09;;;;;;;5.13;1.55;;;;;;;22.15;50.42;102075.13;5055215;28;20037;-60
2022/05/27 09:45:35;;;;;;;7.25;1.50;;;;;;;22.20;50.08;102080.91;5056038;28;20473;-59
2022/05/27 09:48:06;;;;;;;7.88;1.63;;;;;;;22.22;50.50;102094.06;5055771;28;20029;-61
2022/05/27 09:50:44;;;;;;;9.05;1.70;;;;;;;22.26;50.13;102092.84;5056648;28;20025;-60
2022/05/27 09:53:20;;;;;;;6.25;1.60;;;;;;;22.26;49.72;102091.03;5055488;28;20108;-59
2022/05/27 09:56:08;;;;;;;6.03;1.58;;;;;;;22.30;49.48;102098.78;5055409;28;20025;-58
2022/05/27 09:58:40;;;;;;;6.47;1.52;;;;;;;22.28;49.62;102093.56;5055340;28;20465;-60
2022/05/27 10:01:26;;;;;;;4.40;1.70;;;;;;;22.34;49.43;102084.31;5055088;28;20095;-61
2022/05/27 10:04:09;;;;;;;4.57;1.38;;;;;;;22.34;49.12;102101.09;5054043;28;20021;-61
2022/05/27 10:06:36;;;;;;;6.05;1.58;;;;;;;22.35;49.46;102101.91;5056079;28;20025;-61
2022/05/27 10:09:07;;;;;;;3.83;1.42;;;;;;;22.39;49.28;102088.28;5055179;28;20067;-60
2022/05/27 10:11:35;;;;;;;6.38;1.92;;;;;;;22.39;48.80;102096.25;5054368;28;20031;-58
2022/05/27 10:14:14;;;;;;;4.45;1.90;;;;;;;22.39;48.81;102093.59;5055326;28;20017;-61
2022/05/27 10:16:43;;;;;;;5.63;1.73;;;;;;;22.40;49.24;102089.13;5055908;28;20045;-60
2022/05/27 10:19:14;;;;;;;6.38;1.70;;;;;;;22.42;49.00;102087.19;5054591;28;20031;-60
2022/05/27 10:22:00;;;;;;;5.25;1.40;;;;;;;22.43;48.93;102079.09;5055181;28;20071;-60
2022/05/27 10:24:34;;;;;;;5.00;1.77;;;;;;;22.42;48.99;102079.22;5053864;28;20021;-61
2022/05/27 10:27:17;;;;;;;6.13;1.65;;;;;;;22.38;48.88;102088.41;5054409;28;20028;-61
2022/05/27 10:29:48;;;;;;;5.03;1.60;;;;;;;22.34;48.76;102093.13;5054816;28;20047;-60
2022/05/27 10:32:36;;;;;;;5.82;2.00;;;;;;;22.30;49.12;102094.31;5053729;28;20461;-61
2022/05/27 10:35:09;;;;;;;8.65;4.75;;;;;;;22.26;49.19;102103.47;5054472;28;20028;-62
2022/05/27 10:37:56;;;;;;;10.43;6.67;;;;;;;22.21;49.00;102098.53;5054469;28;20461;-64
2022/05/27 10:40:35;;;;;;;10.93;7.78;;;;;;;22.18;49.26;102098.78;5054031;28;20021;-61
2022/05/27 10:43:18;;;;;;;12.43;9.23;;;;;;;22.17;49.17;102090.94;5054245;28;20049;-61
2022/05/27 10:45:55;;;;;;;12.18;9.15;;;;;;;22.14;49.15;102086.69;5053224;28;20021;-59
2022/05/27 10:48:34;;;;;;;12.60;10.50;;;;;;;22.13;49.50;102095.66;5054599;28;20098;-61
2022/05/27 10:51:24;;;;;;;13.95;11.32;;;;;;;22.12;49.33;102099.25;5054470;28;20143;-61
2022/05/27 10:54:20;;;;;;;14.40;12.55;;;;;;;22.09;49.56;102102.97;5053146;28;20392;-62
2022/05/27 11:03:28;;;;;;;16.65;11.63;;;;;;;22.01;48.17;102110.72;5054107;28;20036;-60
2022/05/27 11:06:06;;;;;;;13.43;10.45;;;;;;;22.00;49.13;102103.72;5053976;28;20025;-59
2022/05/27 11:08:33;;;;;;;13.80;10.45;;;;;;;22.00;49.32;102101.06;5053323;28;20071;-62
2022/05/27 11:11:25;;;;;;;14.55;11.55;;;;;;;22.00;49.72;102103.72;5053727;28;20032;-61
2022/05/27 11:16:52;;;;;;;12.57;10.45;;;;;;;21.99;49.53;102101.19;5053365;28;20048;-62
2022/05/27 11:19:52;;;;;;;12.70;10.30;;;;;;;21.98;49.59;102113.59;5053830;28;20041;-60
2022/05/27 11:22:31;;;;;;;12.90;10.00;;;;;;;21.98;49.78;102097.66;5053041;28;20040;-62
2022/05/27 11:25:05;;;;;;;11.18;9.63;;;;;;;21.97;49.90;102098.66;5053528;28;20039;-62
2022/05/27 11:27:36;;;;;;;11.52;9.05;;;;;;;21.96;49.88;102102.25;5052962;28;20029;-61
2022/05/27 11:30:04;;;;;;;11.65;9.30;;;;;;;21.96;49.89;102101.44;5053517;28;20072;-58
2022/05/27 11:32:47;;;;;;;12.55;8.90;;;;;;;21.95;49.32;102102.38;5053482;28;20052;-60
2022/05/27 11:35:22;;;;;;;13.77;8.77;;;;;;;21.95;49.50;102097.06;5052435;28;20033;-60
2022/05/27 11:38:14;;;;;;;12.43;7.75;;;;;;;21.92;49.44;102101.66;5053348;28;20025;-58
2022/05/27 11:40:44;;;;;;;9.82;8.45;;;;;;;21.92;49.37;102111.41;5053476;28;20087;-59
2022/05/27 11:43:31;;;;;;;11.40;7.70;;;;;;;21.91;49.48;102123.03;5052310;28;20032;-59
2022/05/27 11:46:15;;;;;;;12.60;7.82;;;;;;;21.89;49.73;102120.47;5052806;28;20555;-60
2022/05/27 11:49:15;;;;;;;9.73;6.35;;;;;;;21.85;47.64;102118.19;5052726;28;20116;-57
2022/05/27 11:52:14;;;;;;;9.15;6.47;;;;;;;21.83;48.26;102118.28;5053473;28;20476;-57
2022/05/27 11:55:16;;;;;;;9.52;6.32;;;;;;;21.84;49.09;102104.06;5053443;28;20029;-57
2022/05/27 11:57:47;;;;;;;8.30;6.38;;;;;;;21.84;48.77;102119.13;5051368;28;20033;-58
2022/05/27 12:00:26;;;;;;;9.65;6.22;;;;;;;21.82;49.35;102105.97;5052877;28;20025;-58
2022/05/27 12:03:00;;;;;;;10.05;6.88;;;;;;;21.82;48.89;102105.97;5052273;28;20523;-58
2022/05/27 12:05:32;;;;;;;8.85;6.20;;;;;;;21.83;49.18;102123.59;5053157;28;20083;-59
2022/05/27 12:08:12;;;;;;;9.18;6.40;;;;;;;21.83;49.16;102109.50;5052728;28;20029;-59
2022/05/27 12:10:47;;;;;;;8.60;5.55;;;;;;;21.82;49.37;102113.94;5052186;28;20020;-59
2022/05/27 12:13:31;;;;;;;7.20;5.40;;;;;;;21.82;49.12;102123.72;5052712;28;20053;-58
2022/05/27 12:16:27;;;;;;;8.43;5.93;;;;;;;21.83;49.22;102125.44;5052495;28;20135;-57
2022/05/27 12:19:02;;;;;;;8.70;5.18;;;;;;;21.81;48.97;102128.19;5051251;28;20489;-61
2022/05/27 12:21:31;;;;;;;;;;;;;;;21.81;48.96;102122.03;5053159;28;20501;-59